地図

経路データ

SID SEASON NUMBER BASIN SUBBASIN NAME ISO_TIME NATURE LAT LON WMO_WIND WMO_PRES WMO_AGENCY TRACK_TYPE DIST2LAND LANDFALL IFLAG USA_AGENCY USA_ATCF_ID USA_LAT USA_LON USA_RECORD USA_STATUS USA_WIND USA_PRES USA_SSHS USA_R34_NE USA_R34_SE USA_R34_SW USA_R34_NW USA_R50_NE USA_R50_SE USA_R50_SW USA_R50_NW USA_R64_NE USA_R64_SE USA_R64_SW USA_R64_NW USA_POCI USA_ROCI USA_RMW USA_EYE TOKYO_LAT TOKYO_LON TOKYO_GRADE TOKYO_WIND TOKYO_PRES TOKYO_R50_DIR TOKYO_R50_LONG TOKYO_R50_SHORT TOKYO_R30_DIR TOKYO_R30_LONG TOKYO_R30_SHORT TOKYO_LAND CMA_LAT CMA_LON CMA_CAT CMA_WIND CMA_PRES HKO_LAT HKO_LON HKO_CAT HKO_WIND HKO_PRES NEWDELHI_LAT NEWDELHI_LON NEWDELHI_GRADE NEWDELHI_WIND NEWDELHI_PRES NEWDELHI_CI NEWDELHI_DP NEWDELHI_POCI REUNION_LAT REUNION_LON REUNION_TYPE REUNION_WIND REUNION_PRES REUNION_TNUM REUNION_CI REUNION_RMW REUNION_R34_NE REUNION_R34_SE REUNION_R34_SW REUNION_R34_NW REUNION_R50_NE REUNION_R50_SE REUNION_R50_SW REUNION_R50_NW REUNION_R64_NE REUNION_R64_SE REUNION_R64_SW REUNION_R64_NW BOM_LAT BOM_LON BOM_TYPE BOM_WIND BOM_PRES BOM_TNUM BOM_CI BOM_RMW BOM_R34_NE BOM_R34_SE BOM_R34_SW BOM_R34_NW BOM_R50_NE BOM_R50_SE BOM_R50_SW BOM_R50_NW BOM_R64_NE BOM_R64_SE BOM_R64_SW BOM_R64_NW BOM_ROCI BOM_POCI BOM_EYE BOM_POS_METHOD BOM_PRES_METHOD NADI_LAT NADI_LON NADI_CAT NADI_WIND NADI_PRES WELLINGTON_LAT WELLINGTON_LON WELLINGTON_WIND WELLINGTON_PRES DS824_LAT DS824_LON DS824_STAGE DS824_WIND DS824_PRES TD9636_LAT TD9636_LON TD9636_STAGE TD9636_WIND TD9636_PRES TD9635_LAT TD9635_LON TD9635_WIND TD9635_PRES TD9635_ROCI NEUMANN_LAT NEUMANN_LON NEUMANN_CLASS NEUMANN_WIND NEUMANN_PRES MLC_LAT MLC_LON MLC_CLASS MLC_WIND MLC_PRES USA_GUST BOM_GUST BOM_GUST_PER REUNION_GUST REUNION_GUST_PER USA_SEAHGT USA_SEARAD_NE USA_SEARAD_SE USA_SEARAD_SW USA_SEARAD_NW STORM_SPEED STORM_DIR
1871080S16428 1871 10 SI MM NOT_NAMED 1871-03-20 18:00:00 NR -16.3000 68.0000 main 1165 1151 __________O___ -1 -16.3000 68.0000 7 3 232
1871080S16428 1871 10 SI MM NOT_NAMED 1871-03-20 21:00:00 NR -16.4091 67.8589 main 1151 1127 __________P___ -1 -16.4091 67.8589 7 4 231
1871080S16428 1871 10 SI MM NOT_NAMED 1871-03-21 00:00:00 NR -16.5345 67.6942 main 1127 1099 __________P___ -1 -16.5345 67.6942 7 5 232
1871080S16428 1871 10 SI MM NOT_NAMED 1871-03-21 03:00:00 NR -16.6927 67.4825 main 1099 1060 __________P___ -1 -16.6927 67.4825 7 6 232
1871080S16428 1871 10 SI MM NOT_NAMED 1871-03-21 06:00:00 NR -16.9000 67.2000 main 1060 1022 __________O___ -1 -16.9000 67.2000 7 8 233
1871080S16428 1871 10 SI MM NOT_NAMED 1871-03-21 09:00:00 NR -17.1655 66.8338 main 1008 957 __________P___ -1 -17.1655 66.8338 7 9 233
1871080S16428 1871 10 SI MM NOT_NAMED 1871-03-21 12:00:00 NR -17.4708 66.4160 main 957 905 __________P___ -1 -17.4708 66.4160 7 10 232
1871080S16428 1871 10 SI MM NOT_NAMED 1871-03-21 15:00:00 NR -17.7905 65.9901 main 905 855 __________P___ -1 -17.7905 65.9901 7 10 231
1871080S16428 1871 10 SI MM NOT_NAMED 1871-03-21 18:00:00 NR -18.1000 65.6000 main 855 818 __________O___ -1 -18.1000 65.6000 7 9 229
1871080S16428 1871 10 SI MM NOT_NAMED 1871-03-21 21:00:00 NR -18.3558 65.3061 main 814 788 __________P___ -1 -18.3558 65.3061 7 7 226
1871080S16428 1871 10 SI MM NOT_NAMED 1871-03-22 00:00:00 NR -18.5994 65.0540 main 788 752 __________P___ -1 -18.5994 65.0540 7 7 223
1871080S16428 1871 10 SI MM NOT_NAMED 1871-03-22 03:00:00 NR -18.8434 64.8250 main 752 724 __________P___ -1 -18.8434 64.8250 7 7 221
1871080S16428 1871 10 SI MM NOT_NAMED 1871-03-22 06:00:00 NR -19.1000 64.6000 main 724 687 __________O___ -1 -19.1000 64.6000 7 7 221
1871080S16428 1871 10 SI MM NOT_NAMED 1871-03-22 09:00:00 NR -19.3897 64.3298 main 687 661 __________P___ -1 -19.3897 64.3298 7 8 220
1871080S16428 1871 10 SI MM NOT_NAMED 1871-03-22 12:00:00 NR -19.6926 64.0628 main 661 627 __________P___ -1 -19.6926 64.0628 7 8 219
1871080S16428 1871 10 SI MM NOT_NAMED 1871-03-22 15:00:00 NR -19.9992 63.8142 main 627 604 __________P___ -1 -19.9992 63.8142 7 8 216
1871080S16428 1871 10 SI MM NOT_NAMED 1871-03-22 18:00:00 NR -20.3000 63.6000 main 604 584 __________O___ -1 -20.3000 63.6000 7 7 211
1871080S16428 1871 10 SI MM NOT_NAMED 1871-03-22 21:00:00 NR -20.5880 63.4311 main 584 575 __________P___ -1 -20.5880 63.4311 7 6 206
1871080S16428 1871 10 SI MM NOT_NAMED 1871-03-23 00:00:00 NR -20.8649 63.2999 main 576 567 __________P___ -1 -20.8649 63.2999 7 6 202
1871080S16428 1871 10 SI MM NOT_NAMED 1871-03-23 03:00:00 NR -21.1343 63.1937 main 568 562 __________P___ -1 -21.1343 63.1937 7 6 199
1871080S16428 1871 10 SI MM NOT_NAMED 1871-03-23 06:00:00 NR -21.4000 63.1000 main 564 __________O___ -1 -21.4000 63.1000 7 6 198

IBTrACS Databaseについて

本データベースは、米国NOAAが公開する1842年以降の世界の熱帯低気圧のベストトラックデータアーカイブInternational Best Track Archive for Climate Stewardship (IBTrACS)を、ウェブで閲覧しやすい形式に変換したものです。

最終更新日:2021-10-21